createdAt,value
2018-05-26T00:01:07.521Z,6.73
2018-05-26T00:04:13.635Z,6.37
2018-05-26T00:07:19.306Z,6.73
2018-05-26T00:10:24.962Z,6.30
2018-05-26T00:13:31.617Z,7.37
2018-05-26T00:16:36.838Z,7.00
2018-05-26T00:19:42.046Z,6.90
2018-05-26T00:22:52.980Z,8.40
2018-05-26T00:25:58.720Z,8.60
2018-05-26T00:29:04.837Z,8.20
2018-05-26T00:32:11.781Z,10.83
2018-05-26T00:35:17.604Z,12.07
2018-05-26T00:38:22.813Z,13.07
2018-05-26T00:41:28.562Z,12.53
2018-05-26T00:44:33.778Z,13.17
2018-05-26T00:47:39.123Z,13.30
2018-05-26T00:50:46.107Z,14.47
2018-05-26T00:53:51.852Z,14.23
2018-05-26T00:56:57.800Z,15.70
2018-05-26T01:00:03.313Z,15.53
2018-05-26T01:03:09.367Z,15.10
2018-05-26T01:06:14.310Z,14.30
2018-05-26T01:09:19.937Z,14.27
2018-05-26T01:12:26.088Z,14.90
2018-05-26T01:15:32.252Z,16.40
2018-05-26T01:18:38.091Z,14.57
2018-05-26T01:21:45.150Z,15.23
2018-05-26T01:24:51.073Z,15.03
2018-05-26T01:27:57.101Z,14.00
2018-05-26T01:31:03.041Z,15.00
2018-05-26T01:34:08.017Z,15.20
2018-05-26T01:37:14.093Z,14.70
2018-05-26T01:40:20.113Z,13.10
2018-05-26T01:43:26.069Z,13.63
2018-05-26T01:46:32.060Z,12.03
2018-05-26T01:49:37.241Z,14.40
2018-05-26T01:52:43.655Z,12.60
2018-05-26T01:55:49.297Z,11.30
2018-05-26T01:58:55.434Z,12.07
2018-05-26T02:02:01.062Z,10.67
2018-05-26T02:05:07.291Z,11.70
2018-05-26T02:08:13.292Z,9.93
2018-05-26T02:11:19.450Z,10.07
2018-05-26T02:14:24.653Z,9.57
2018-05-26T02:17:30.592Z,10.80
2018-05-26T02:20:36.634Z,10.13
2018-05-26T02:23:41.886Z,9.20
2018-05-26T02:26:47.118Z,10.07
2018-05-26T02:29:52.328Z,9.30
2018-05-26T02:32:57.546Z,8.80
2018-05-26T02:36:04.698Z,9.43
2018-05-26T02:39:11.537Z,8.77
2018-05-26T02:42:17.351Z,7.80
2018-05-26T02:45:23.196Z,7.70
2018-05-26T02:48:29.128Z,8.07
2018-05-26T02:51:36.061Z,8.00
2018-05-26T02:54:41.897Z,7.83
2018-05-26T02:57:47.158Z,7.07
2018-05-26T03:00:54.021Z,8.10
2018-05-26T03:03:58.849Z,6.73
2018-05-26T03:07:10.843Z,6.93
2018-05-26T03:10:21.165Z,6.23
2018-05-26T03:13:32.386Z,7.77
2018-05-26T03:16:41.318Z,6.50
2018-05-26T03:19:47.798Z,6.57
2018-05-26T03:22:53.417Z,7.10
2018-05-26T03:25:59.354Z,7.90
2018-05-26T03:29:06.287Z,6.80
2018-05-26T03:32:12.125Z,6.27
2018-05-26T03:35:19.065Z,5.80
2018-05-26T03:38:24.894Z,6.17
2018-05-26T03:41:31.850Z,4.70
2018-05-26T03:44:37.690Z,5.30
2018-05-26T03:47:44.741Z,5.57
2018-05-26T03:50:50.557Z,5.30
2018-05-26T03:53:56.411Z,4.83
2018-05-26T04:00:40.327Z,4.73
2018-05-26T04:03:45.534Z,4.27
2018-05-26T04:06:51.162Z,4.33
2018-05-26T04:09:57.225Z,4.40
2018-05-26T04:13:03.070Z,3.80
2018-05-26T04:16:08.813Z,5.07
2018-05-26T04:19:14.711Z,3.80
2018-05-26T04:22:20.845Z,4.23
2018-05-26T04:25:26.982Z,4.60
2018-05-26T04:28:32.919Z,4.00
2018-05-26T04:31:38.778Z,3.70
2018-05-26T04:34:44.721Z,3.90
2018-05-26T04:37:50.658Z,3.97
2018-05-26T04:40:55.898Z,3.80
2018-05-26T04:44:01.133Z,4.30
2018-05-26T04:47:07.251Z,3.87
2018-05-26T04:50:12.466Z,4.07
2018-05-26T04:53:17.703Z,3.27
2018-05-26T04:56:23.831Z,4.43
2018-05-26T04:59:29.452Z,4.07
2018-05-26T05:02:34.667Z,4.50
2018-05-26T05:05:40.848Z,4.63
2018-05-26T05:08:47.967Z,5.43
2018-05-26T05:11:53.826Z,5.03
2018-05-26T05:14:59.490Z,5.50
2018-05-26T05:18:05.039Z,5.10
2018-05-26T05:21:10.260Z,5.30
2018-05-26T05:24:15.904Z,6.07
2018-05-26T05:27:21.827Z,6.93
2018-05-26T05:30:27.761Z,5.97
2018-05-26T05:33:33.794Z,7.17
2018-05-26T05:36:39.638Z,5.50
2018-05-26T05:39:45.569Z,6.47
2018-05-26T05:42:51.711Z,6.17
2018-05-26T05:45:56.924Z,5.60
2018-05-26T05:49:03.063Z,5.30
2018-05-26T05:52:08.274Z,5.23
2018-05-26T05:55:14.360Z,5.00
2018-05-26T05:58:19.735Z,5.17
2018-05-26T06:01:25.352Z,5.40
2018-05-26T06:04:31.731Z,4.37
2018-05-26T06:07:37.872Z,5.70
2018-05-26T06:10:43.099Z,4.37
2018-05-26T06:13:48.969Z,4.37
2018-05-26T06:16:54.185Z,3.87
2018-05-26T06:19:59.395Z,4.63
2018-05-26T06:23:04.614Z,4.10
2018-05-26T06:26:10.760Z,4.03
2018-05-26T06:29:15.954Z,3.50
2018-05-26T06:32:22.102Z,3.90
2018-05-26T06:35:27.735Z,3.60
2018-05-26T06:38:33.766Z,3.23
2018-05-26T06:41:39.618Z,3.53
2018-05-26T06:44:45.647Z,3.80
2018-05-26T06:47:50.863Z,3.90
2018-05-26T06:50:56.073Z,3.57
2018-05-26T06:54:01.291Z,3.47
2018-05-26T06:57:06.500Z,3.67
2018-05-26T07:00:12.472Z,2.97
2018-05-26T07:03:17.879Z,3.30
2018-05-26T07:06:24.022Z,3.60
2018-05-26T07:09:28.999Z,3.83
2018-05-26T07:12:34.979Z,3.50
2018-05-26T07:15:39.869Z,3.63
2018-05-26T07:18:46.522Z,2.80
2018-05-26T07:21:52.342Z,3.00
2018-05-26T07:24:57.557Z,3.40
2018-05-26T07:28:04.162Z,3.53
2018-05-26T07:31:09.358Z,3.53
2018-05-26T07:34:15.289Z,3.23
2018-05-26T07:37:21.511Z,3.73
2018-05-26T07:40:26.715Z,3.80
2018-05-26T07:43:31.942Z,3.10
2018-05-26T07:46:37.142Z,3.23
2018-05-26T07:49:43.283Z,2.83
2018-05-26T07:52:49.308Z,3.93
2018-05-26T07:55:54.518Z,3.10
2018-05-26T07:59:00.196Z,2.90
2018-05-26T08:02:06.207Z,3.30
2018-05-26T08:05:11.426Z,3.07
2018-05-26T08:08:17.369Z,3.40
2018-05-26T08:11:22.600Z,3.50
2018-05-26T08:14:28.510Z,4.20
2018-05-26T08:17:33.730Z,3.50
2018-05-26T08:20:38.953Z,2.90
2018-05-26T08:23:44.955Z,3.60
2018-05-26T08:26:51.092Z,3.80
2018-05-26T08:29:57.315Z,3.00
2018-05-26T08:33:03.142Z,3.50
2018-05-26T08:36:08.362Z,3.70
2018-05-26T08:39:14.581Z,3.27
2018-05-26T08:42:20.394Z,3.37
2018-05-26T08:45:25.422Z,3.20
2018-05-26T08:48:30.785Z,3.30
2018-05-26T08:51:36.423Z,3.47
2018-05-26T08:54:42.478Z,3.60
2018-05-26T08:57:48.627Z,4.23
2018-05-26T09:00:54.658Z,3.93
2018-05-26T09:04:00.390Z,3.67
2018-05-26T09:07:06.406Z,3.93
2018-05-26T09:10:11.626Z,4.17
2018-05-26T09:13:17.775Z,3.50
2018-05-26T09:16:23.841Z,3.60
2018-05-26T09:19:29.043Z,3.50
2018-05-26T09:22:35.183Z,3.13
2018-05-26T09:25:41.322Z,3.43
2018-05-26T09:28:47.443Z,3.57
2018-05-26T09:31:53.087Z,2.97
2018-05-26T09:34:58.315Z,3.70
2018-05-26T09:38:03.946Z,3.90
2018-05-26T09:41:10.085Z,3.53
2018-05-26T09:44:15.727Z,3.60
2018-05-26T09:47:21.665Z,3.33
2018-05-26T09:50:28.393Z,3.40
2018-05-26T09:53:34.019Z,3.50
2018-05-26T09:56:39.238Z,3.97
2018-05-26T09:59:44.886Z,3.83
2018-05-26T10:02:51.022Z,3.73
2018-05-26T10:05:56.232Z,4.40
2018-05-26T10:09:01.862Z,4.27
2018-05-26T10:12:08.539Z,3.63
2018-05-26T10:15:13.758Z,3.00
2018-05-26T10:18:19.386Z,3.07
2018-05-26T10:21:24.603Z,4.00
2018-05-26T10:24:30.949Z,3.27
2018-05-26T10:27:37.069Z,2.70
2018-05-26T10:30:42.719Z,3.13
2018-05-26T10:33:47.922Z,4.00
2018-05-26T10:36:52.854Z,3.43
2018-05-26T10:39:59.000Z,3.70
2018-05-26T10:43:04.206Z,3.50
2018-05-26T10:46:21.015Z,3.00
2018-05-26T10:49:25.924Z,3.23
2018-05-26T10:52:31.286Z,3.23
2018-05-26T10:55:36.226Z,3.20
2018-05-26T10:58:41.149Z,3.90
2018-05-26T11:01:46.813Z,3.00
2018-05-26T11:04:52.658Z,3.47
2018-05-26T11:07:58.538Z,2.80
2018-05-26T11:11:03.466Z,3.50
2018-05-26T11:14:08.979Z,2.27
2018-05-26T11:17:14.234Z,3.00
2018-05-26T11:20:19.172Z,2.73
2018-05-26T11:23:25.374Z,3.20
2018-05-26T11:26:30.997Z,3.07
2018-05-26T11:29:36.856Z,2.83
2018-05-26T11:32:41.967Z,2.63
2018-05-26T11:35:47.663Z,2.80
2018-05-26T11:38:52.594Z,2.90
2018-05-26T11:41:57.973Z,2.90
2018-05-26T11:45:02.975Z,2.90
2018-05-26T11:48:07.910Z,2.83
2018-05-26T11:51:13.266Z,3.43
2018-05-26T11:54:18.211Z,3.13
2018-05-26T11:57:23.551Z,2.80
2018-05-26T12:00:28.928Z,3.20
2018-05-26T12:03:34.883Z,3.67
2018-05-26T12:06:40.460Z,3.57
2018-05-26T12:09:46.400Z,3.30
2018-05-26T12:12:51.940Z,3.73
2018-05-26T12:15:57.080Z,2.83
2018-05-26T12:19:02.712Z,3.10
2018-05-26T12:22:07.642Z,2.80
2018-05-26T12:25:13.006Z,3.30
2018-05-26T12:28:18.867Z,3.50
2018-05-26T12:31:24.737Z,3.03
2018-05-26T12:34:30.767Z,3.47
2018-05-26T12:37:36.407Z,2.83
2018-05-26T12:40:42.171Z,3.60
2018-05-26T12:43:47.169Z,2.53
2018-05-26T12:46:53.258Z,2.70
2018-05-26T12:49:58.815Z,2.70
2018-05-26T12:53:03.742Z,2.77
2018-05-26T12:56:09.102Z,2.57
2018-05-26T12:59:14.222Z,2.30
2018-05-26T13:02:20.616Z,2.30
2018-05-26T13:05:25.562Z,2.17
2018-05-26T13:08:31.416Z,2.37
2018-05-26T13:11:36.355Z,2.00
2018-05-26T13:14:41.705Z,2.00
2018-05-26T13:17:47.651Z,2.10
2018-05-26T13:20:53.198Z,1.67
2018-05-26T13:23:58.831Z,1.70
2018-05-26T13:27:04.283Z,1.70
2018-05-26T13:30:09.215Z,1.87
2018-05-26T13:33:14.158Z,1.70
2018-05-26T13:36:19.101Z,1.87
2018-05-26T13:39:23.702Z,1.63
2018-05-26T13:42:29.720Z,1.50
2018-05-26T13:45:35.763Z,1.70
2018-05-26T13:48:41.812Z,1.80
2018-05-26T13:51:47.865Z,2.23
2018-05-26T13:54:53.839Z,1.60
2018-05-26T13:57:59.569Z,1.60
2018-05-26T14:01:05.750Z,1.57
2018-05-26T14:04:11.563Z,1.90
2018-05-26T14:07:17.502Z,1.90
2018-05-26T14:10:23.660Z,1.90
2018-05-26T14:13:32.462Z,1.60
2018-05-26T14:16:38.138Z,2.10
2018-05-26T14:19:43.498Z,1.93
2018-05-26T14:22:48.730Z,2.50
2018-05-26T14:25:54.465Z,2.37
2018-05-26T14:29:00.618Z,2.10
2018-05-26T14:32:05.483Z,2.50
2018-05-26T14:35:10.894Z,1.93
2018-05-26T14:38:16.111Z,1.90
2018-05-26T14:41:21.314Z,1.93
2018-05-26T14:44:26.534Z,2.20
2018-05-26T14:47:32.767Z,1.90
2018-05-26T14:50:38.887Z,2.90
2018-05-26T14:53:44.121Z,2.03
2018-05-26T14:56:48.998Z,1.83
2018-05-26T14:59:54.729Z,1.90
2018-05-26T15:03:00.761Z,1.93
2018-05-26T15:06:06.810Z,2.10
2018-05-26T15:09:12.959Z,2.20
2018-05-26T15:12:19.171Z,1.83
2018-05-26T15:15:25.214Z,2.00
2018-05-26T15:18:30.427Z,2.00
2018-05-26T15:21:35.818Z,2.30
2018-05-26T15:24:41.944Z,2.50
2018-05-26T15:27:48.194Z,2.37
2018-05-26T15:30:54.013Z,2.27
2018-05-26T15:33:59.243Z,2.40
2018-05-26T15:37:04.642Z,2.30
2018-05-26T15:40:10.357Z,2.40
2018-05-26T15:43:16.520Z,2.37
2018-05-26T15:46:21.718Z,2.30
2018-05-26T15:49:27.862Z,2.43
2018-05-26T15:52:33.074Z,2.77
2018-05-26T15:55:38.797Z,2.30
2018-05-26T15:58:44.038Z,2.03
2018-05-26T16:01:49.439Z,2.43
2018-05-26T16:04:55.167Z,2.37
2018-05-26T16:08:01.318Z,2.73
2018-05-26T16:11:06.904Z,2.17
2018-05-26T16:14:13.050Z,2.63
2018-05-26T16:17:18.248Z,2.93
2018-05-26T16:20:23.470Z,2.73
2018-05-26T16:23:29.395Z,2.47
2018-05-26T16:26:34.611Z,3.07
2018-05-26T16:29:40.239Z,3.30
2018-05-26T16:32:46.200Z,2.57
2018-05-26T16:35:52.376Z,2.23
2018-05-26T16:39:00.496Z,2.40
2018-05-26T16:42:06.341Z,2.43
2018-05-26T16:45:11.559Z,2.03
2018-05-26T16:48:17.585Z,2.80
2018-05-26T16:51:23.814Z,2.57
2018-05-26T16:54:29.667Z,2.97
2018-05-26T16:57:34.911Z,2.60
2018-05-26T17:00:40.127Z,2.40
2018-05-26T17:03:46.261Z,2.60
2018-05-26T17:06:52.199Z,2.93
2018-05-26T17:09:58.244Z,2.63
2018-05-26T17:13:04.183Z,2.70
2018-05-26T17:16:10.312Z,2.97
2018-05-26T17:19:15.550Z,2.70
2018-05-26T17:22:20.762Z,2.27
2018-05-26T17:25:25.971Z,2.23
2018-05-26T17:28:32.093Z,2.93
2018-05-26T17:31:38.234Z,2.77
2018-05-26T17:34:44.387Z,2.20
2018-05-26T17:37:50.436Z,2.87
2018-05-26T17:40:55.864Z,2.47
2018-05-26T17:44:01.970Z,3.10
2018-05-26T17:47:07.611Z,2.43
2018-05-26T17:50:13.661Z,2.50
2018-05-26T17:53:19.782Z,2.53
2018-05-26T17:56:25.010Z,2.63
2018-05-26T17:59:31.158Z,3.03
2018-05-26T18:02:37.291Z,2.80
2018-05-26T18:05:43.433Z,2.60
2018-05-26T18:08:49.357Z,2.50
2018-05-26T18:11:55.396Z,2.40
2018-05-26T18:15:01.681Z,2.83
2018-05-26T18:18:07.561Z,2.40
2018-05-26T18:21:13.464Z,2.27
2018-05-26T18:24:20.599Z,2.43
2018-05-26T18:27:26.444Z,2.60
2018-05-26T18:30:32.363Z,2.90
2018-05-26T18:33:38.498Z,2.77
2018-05-26T18:36:44.638Z,2.40
2018-05-26T18:39:49.878Z,2.47
2018-05-26T18:42:55.099Z,2.27
2018-05-26T18:46:00.316Z,2.97
2018-05-26T18:49:06.428Z,2.57
2018-05-26T18:52:12.564Z,2.50
2018-05-26T18:55:18.678Z,3.13
2018-05-26T18:58:24.307Z,2.43
2018-05-26T19:01:30.346Z,3.37
2018-05-26T19:04:35.919Z,2.30
2018-05-26T19:07:41.138Z,2.77
2018-05-26T19:10:47.143Z,2.70
2018-05-26T19:13:52.368Z,2.10
2018-05-26T19:16:58.280Z,2.30
2018-05-26T19:20:04.272Z,2.70
2018-05-26T19:23:10.130Z,2.93
2018-05-26T19:26:16.241Z,1.87
2018-05-26T19:29:21.873Z,2.47
2018-05-26T19:32:26.753Z,2.10
2018-05-26T19:35:31.961Z,2.40
2018-05-26T19:38:37.775Z,2.10
2018-05-26T19:41:42.999Z,1.97
2018-05-26T19:44:48.227Z,2.33
2018-05-26T19:47:54.015Z,2.80
2018-05-26T19:51:00.034Z,2.53
2018-05-26T19:54:05.866Z,2.43
2018-05-26T19:57:11.795Z,2.40
2018-05-26T20:00:17.010Z,2.40
2018-05-26T20:03:22.215Z,2.67
2018-05-26T20:06:27.431Z,2.20
2018-05-26T20:09:32.638Z,3.47
2018-05-26T20:12:38.688Z,2.83
2018-05-26T20:15:44.708Z,3.57
2018-05-26T20:18:50.539Z,2.80
2018-05-26T20:21:56.506Z,3.00
2018-05-26T20:25:02.653Z,3.03
2018-05-26T20:28:08.609Z,2.63
2018-05-26T20:31:14.734Z,2.70
2018-05-26T20:34:20.666Z,3.20
2018-05-26T20:37:26.483Z,2.70
2018-05-26T20:40:32.503Z,2.90
2018-05-26T20:43:38.415Z,3.40
2018-05-26T20:46:45.319Z,2.77
2018-05-26T20:49:51.197Z,2.90
2018-05-26T20:52:57.237Z,3.30
2018-05-26T20:56:02.453Z,3.50
2018-05-26T20:59:07.698Z,3.90
2018-05-26T21:02:12.907Z,3.17
2018-05-26T21:05:19.065Z,3.63
2018-05-26T21:08:24.278Z,3.37
2018-05-26T21:11:30.210Z,4.00
2018-05-26T21:14:36.237Z,4.27
2018-05-26T21:17:42.165Z,4.57
2018-05-26T21:20:47.371Z,4.83
2018-05-26T21:23:54.246Z,4.03
2018-05-26T21:26:59.450Z,4.63
2018-05-26T21:30:05.382Z,5.33
2018-05-26T21:33:10.664Z,5.10
2018-05-26T21:36:16.383Z,5.27
2018-05-26T21:39:22.142Z,5.30
2018-05-26T21:42:27.370Z,4.93
2018-05-26T21:45:32.579Z,4.17
2018-05-26T21:48:38.377Z,4.70
2018-05-26T21:51:43.626Z,5.30
2018-05-26T21:54:49.341Z,5.17
2018-05-26T21:57:55.488Z,4.53
2018-05-26T22:01:01.814Z,5.43
2018-05-26T22:04:07.362Z,4.60
2018-05-26T22:07:12.587Z,5.33
2018-05-26T22:10:18.910Z,5.40
2018-05-26T22:13:24.851Z,4.60
2018-05-26T22:16:31.028Z,4.80
2018-05-26T22:19:36.251Z,5.60
2018-05-26T22:22:41.467Z,6.30
2018-05-26T22:25:47.528Z,4.63
2018-05-26T22:28:52.734Z,5.87
2018-05-26T22:31:57.946Z,4.90
2018-05-26T22:35:03.142Z,4.80
2018-05-26T22:38:08.994Z,5.00
2018-05-26T22:41:15.323Z,4.77
2018-05-26T22:44:20.530Z,5.57
2018-05-26T22:47:25.814Z,5.23
2018-05-26T22:50:31.654Z,4.97
2018-05-26T22:53:37.878Z,5.77
2018-05-26T22:56:43.752Z,6.10
2018-05-26T22:59:48.970Z,5.30
2018-05-26T23:02:55.213Z,7.10
2018-05-26T23:06:00.739Z,5.80
2018-05-26T23:09:07.531Z,6.47
2018-05-26T23:12:13.348Z,7.37
2018-05-26T23:15:18.570Z,7.73
2018-05-26T23:18:23.797Z,8.60
2018-05-26T23:21:30.404Z,7.70
2018-05-26T23:24:36.843Z,7.70
2018-05-26T23:27:42.763Z,7.90
2018-05-26T23:30:47.982Z,9.87
2018-05-26T23:33:53.200Z,8.40
2018-05-26T23:36:58.438Z,9.13
2018-05-26T23:40:03.416Z,8.60
2018-05-26T23:43:09.158Z,9.00
2018-05-26T23:46:15.225Z,9.00
2018-05-26T23:49:21.387Z,9.10
2018-05-26T23:52:27.429Z,8.40
2018-05-26T23:55:33.562Z,8.67
2018-05-26T23:58:39.602Z,8.30
